Terminal Aerodrome Forecast
Issued by NWS

Home | Current Version | Previous Version | Text Only | Print | Product List | Glossary On
Versions: 1 2 3 4 5 6 7 8 9 10 11 12 13 14 15 16 17 18 19 20 21 22 23 24 25 26 27 28 29
909
FTUS44 KFWD 261128
TAFFTW
TAF
KFTW 261128Z 2612/2712 14006KT P6SM FEW300
     FM261400 16012KT P6SM BKN015
     FM261800 17020G30KT P6SM SCT020 BKN250
     FM262200 17020G30KT P6SM VCTS SCT040CB BKN150
     FM270100 17015KT P6SM SCT045 SCT100
     FM270600 19013KT P6SM BKN015
     FM270900 27008KT P6SM BKN009=

USA.gov is the U.S. government's official web portal to all federal, state and local government web resources and services.